Time;durP1;ratioP1;P1;durP2;ratioP2;P2;SDS_P1;SDS_P2;PMS_P1;PMS_P2;Temp;Humidity;BMP_temperature;BMP_pressure;BME280_temperature;BME280_humidity;BME280_pressure;Samples;Min_cycle;Max_cycle;Signal;HPM_P1;HPM_P2
2021/09/04 00:02:00;;;;;;;21.33;10.23;;;17.00;99.90;;;;;;8275055;28;20039;-74
2021/09/04 00:06:03;;;;;;;17.90;10.20;;;17.00;99.90;;;;;;8263904;28;20116;-74
2021/09/04 00:10:05;;;;;;;20.67;11.73;;;16.90;99.90;;;;;;8259627;28;20054;-74
2021/09/04 00:14:07;;;;;;;19.63;11.02;;;16.80;99.90;;;;;;8254628;28;20058;-74
2021/09/04 00:18:09;;;;;;;20.58;10.88;;;16.80;99.90;;;;;;8252658;28;20053;-73
2021/09/04 00:22:10;;;;;;;21.48;11.18;;;16.80;99.90;;;;;;8257479;28;20498;-74
2021/09/04 00:26:12;;;;;;;19.58;10.70;;;16.80;99.90;;;;;;8252681;28;20051;-74
2021/09/04 00:30:14;;;;;;;18.20;10.77;;;16.70;99.90;;;;;;8254553;28;20054;-74
2021/09/04 00:34:16;;;;;;;17.38;9.55;;;16.70;99.90;;;;;;8247014;28;20073;-73
2021/09/04 00:38:17;;;;;;;14.93;8.05;;;16.60;99.90;;;;;;8259816;28;20054;-74
2021/09/04 00:42:20;;;;;;;14.65;8.43;;;16.60;99.90;;;;;;8264448;28;20060;-73
2021/09/04 00:46:21;;;;;;;13.40;7.00;;;16.60;99.90;;;;;;8259978;28;20815;-73
2021/09/04 00:50:25;;;;;;;13.05;7.68;;;16.50;99.90;;;;;;8259100;28;20057;-73
2021/09/04 00:54:27;;;;;;;16.70;8.95;;;16.50;99.90;;;;;;8252407;28;20494;-73
2021/09/04 00:58:29;;;;;;;15.63;8.60;;;16.40;99.90;;;;;;8263068;28;20429;-74
2021/09/04 01:02:31;;;;;;;18.25;8.38;;;16.40;99.90;;;;;;8261568;28;20046;-74
2021/09/04 01:06:34;;;;;;;13.63;7.90;;;16.40;99.90;;;;;;8260879;28;20157;-73
2021/09/04 01:10:36;;;;;;;16.10;8.55;;;16.30;99.90;;;;;;8258226;28;20050;-73
2021/09/04 01:14:38;;;;;;;16.75;8.20;;;16.30;99.90;;;;;;8260901;28;20506;-73
2021/09/04 01:18:40;;;;;;;16.63;8.27;;;16.30;99.90;;;;;;8262422;28;20659;-74
2021/09/04 01:22:42;;;;;;;17.25;9.25;;;16.20;99.90;;;;;;8263121;28;20074;-73
2021/09/04 01:26:45;;;;;;;15.95;8.43;;;16.20;99.90;;;;;;8263089;28;20057;-74
2021/09/04 01:30:47;;;;;;;18.80;8.70;;;16.20;99.90;;;;;;8255950;28;20046;-73
2021/09/04 01:34:49;;;;;;;15.15;8.10;;;16.10;99.90;;;;;;8256587;28;20054;-73
2021/09/04 01:38:51;;;;;;;16.42;8.43;;;16.10;99.90;;;;;;8255437;28;20043;-73
2021/09/04 01:42:52;;;;;;;17.88;8.07;;;16.00;99.90;;;;;;8261915;28;20069;-74
2021/09/04 01:46:54;;;;;;;15.82;8.35;;;16.00;99.90;;;;;;8259767;28;20396;-74
2021/09/04 01:50:56;;;;;;;19.38;8.85;;;16.00;99.90;;;;;;8253391;28;20321;-74
2021/09/04 01:54:57;;;;;;;15.52;7.88;;;16.00;99.90;;;;;;8261791;28;20062;-74
2021/09/04 01:58:59;;;;;;;16.63;8.30;;;15.90;99.90;;;;;;8255550;28;20053;-73
2021/09/04 02:03:01;;;;;;;24.38;7.65;;;15.90;99.90;;;;;;8253027;28;20097;-74
2021/09/04 02:07:03;;;;;;;16.35;7.93;;;15.90;99.90;;;;;;8256738;28;20081;-73
2021/09/04 02:11:05;;;;;;;19.80;9.40;;;15.80;99.90;;;;;;8256159;28;20065;-73
2021/09/04 02:15:08;;;;;;;16.98;8.15;;;15.80;99.90;;;;;;8263212;28;20105;-73
2021/09/04 02:19:10;;;;;;;13.55;7.50;;;15.80;99.90;;;;;;8251762;28;20042;-74
2021/09/04 02:23:12;;;;;;;18.02;8.55;;;15.70;99.90;;;;;;8260638;28;20049;-74
2021/09/04 02:27:14;;;;;;;19.75;10.32;;;15.70;99.90;;;;;;8257802;28;20404;-73
2021/09/04 02:31:18;;;;;;;19.15;8.10;;;15.70;99.90;;;;;;8257604;28;20641;-73
2021/09/04 02:35:20;;;;;;;16.63;8.10;;;15.70;99.90;;;;;;8260501;28;20479;-73
2021/09/04 02:39:21;;;;;;;17.15;7.70;;;15.60;99.90;;;;;;8257030;28;20050;-73
2021/09/04 02:43:23;;;;;;;13.40;7.55;;;15.60;99.90;;;;;;8254076;28;20038;-74
2021/09/04 02:47:25;;;;;;;16.20;7.78;;;15.60;99.90;;;;;;8266799;28;20053;-73
2021/09/04 02:51:26;;;;;;;19.02;7.50;;;15.60;99.90;;;;;;8260900;28;20061;-73
2021/09/04 02:55:28;;;;;;;19.27;8.70;;;15.60;99.90;;;;;;8258970;28;20093;-73
2021/09/04 02:59:30;;;;;;;16.33;8.32;;;15.50;99.90;;;;;;8257957;28;20042;-73
2021/09/04 03:03:32;;;;;;;17.65;8.15;;;15.40;99.90;;;;;;8259389;28;20053;-73
2021/09/04 03:07:33;;;;;;;16.25;8.48;;;15.40;99.90;;;;;;8255604;28;20049;-73
2021/09/04 03:11:35;;;;;;;23.55;8.65;;;15.40;99.90;;;;;;8260609;28;20049;-73
2021/09/04 03:15:37;;;;;;;22.38;8.20;;;15.30;99.90;;;;;;8275092;28;20050;-73
2021/09/04 03:19:39;;;;;;;18.45;8.82;;;15.30;99.90;;;;;;8260186;28;20042;-73
2021/09/04 03:23:40;;;;;;;18.83;9.00;;;15.20;99.90;;;;;;8257265;28;20042;-73
2021/09/04 03:27:42;;;;;;;17.77;8.88;;;15.20;99.90;;;;;;8260110;28;20145;-73
2021/09/04 03:31:44;;;;;;;22.52;10.55;;;15.20;99.90;;;;;;8259966;28;20078;-73
2021/09/04 03:35:46;;;;;;;17.75;9.18;;;15.20;99.90;;;;;;8254968;28;20061;-73
2021/09/04 03:39:48;;;;;;;18.52;9.30;;;15.10;99.90;;;;;;8255752;28;20370;-73
2021/09/04 03:43:49;;;;;;;18.85;8.77;;;15.10;99.90;;;;;;8260087;28;20613;-73
2021/09/04 03:47:51;;;;;;;19.08;10.35;;;15.10;99.90;;;;;;8253145;28;20046;-73
2021/09/04 03:51:53;;;;;;;17.58;9.50;;;15.10;99.90;;;;;;8258711;28;20050;-73
2021/09/04 03:55:54;;;;;;;16.92;8.63;;;15.10;99.90;;;;;;8257423;28;20050;-73
2021/09/04 03:59:56;;;;;;;18.27;9.07;;;15.10;99.90;;;;;;8259344;28;20050;-73
2021/09/04 04:03:58;;;;;;;23.98;10.60;;;15.10;99.90;;;;;;8256629;28;20058;-73
2021/09/04 04:07:59;;;;;;;21.98;9.00;;;15.00;99.90;;;;;;8258217;28;20046;-73
2021/09/04 04:12:01;;;;;;;15.25;6.55;;;15.00;99.90;;;;;;8264061;28;20046;-73
2021/09/04 04:16:04;;;;;;;19.55;9.40;;;15.00;99.90;;;;;;8266518;28;20050;-74
2021/09/04 04:20:07;;;;;;;20.63;10.15;;;15.00;99.90;;;;;;8257531;28;20047;-73
2021/09/04 04:24:08;;;;;;;18.63;9.55;;;15.00;99.90;;;;;;8264383;28;20050;-73
2021/09/04 04:28:10;;;;;;;20.33;9.20;;;15.00;99.90;;;;;;8264557;28;20391;-73
2021/09/04 04:32:12;;;;;;;23.77;10.32;;;15.00;99.90;;;;;;8258559;28;20078;-73
2021/09/04 04:36:14;;;;;;;25.67;10.60;;;15.00;99.90;;;;;;8260789;28;20050;-73
2021/09/04 04:40:16;;;;;;;19.20;9.82;;;15.00;99.90;;;;;;8253996;28;20039;-73
2021/09/04 04:44:17;;;;;;;24.50;10.43;;;15.00;99.90;;;;;;8267195;28;20482;-72
2021/09/04 04:48:20;;;;;;;19.90;10.30;;;15.00;99.90;;;;;;8262739;28;20042;-73
2021/09/04 04:52:21;;;;;;;18.90;9.85;;;15.10;99.90;;;;;;8263493;28;20054;-73
2021/09/04 04:56:23;;;;;;;19.70;9.60;;;15.10;99.90;;;;;;8259050;28;20371;-73
2021/09/04 05:00:28;;;;;;;22.33;10.27;;;15.10;99.90;;;;;;8263555;28;20074;-73
2021/09/04 05:04:30;;;;;;;22.63;10.13;;;15.00;99.90;;;;;;8260306;28;20457;-73
2021/09/04 05:08:31;;;;;;;16.00;7.50;;;15.00;99.90;;;;;;8259647;28;20047;-73
2021/09/04 05:12:33;;;;;;;19.52;10.35;;;15.00;99.90;;;;;;8260576;28;20105;-73
2021/09/04 05:16:35;;;;;;;23.08;10.45;;;15.00;99.90;;;;;;8258883;28;20081;-73
2021/09/04 05:20:38;;;;;;;16.88;8.73;;;15.00;99.90;;;;;;8257820;28;20046;-73
2021/09/04 05:24:39;;;;;;;21.77;11.00;;;15.00;99.90;;;;;;8274769;28;20054;-73
2021/09/04 05:28:41;;;;;;;21.30;10.18;;;15.00;99.90;;;;;;8259510;28;20050;-73
2021/09/04 05:32:43;;;;;;;21.85;9.75;;;15.00;99.90;;;;;;8275127;28;20057;-73
2021/09/04 05:36:44;;;;;;;20.92;9.90;;;15.00;99.90;;;;;;8257889;28;20426;-73
2021/09/04 05:40:46;;;;;;;23.17;9.75;;;15.00;99.90;;;;;;8260816;28;20078;-73
2021/09/04 05:44:48;;;;;;;21.90;10.38;;;15.00;99.90;;;;;;8261184;28;20058;-73
2021/09/04 05:48:50;;;;;;;19.00;9.77;;;15.00;99.90;;;;;;8258293;28;20042;-73
2021/09/04 05:52:51;;;;;;;18.50;9.90;;;15.00;99.90;;;;;;8260477;28;20057;-73
2021/09/04 05:56:53;;;;;;;23.27;11.00;;;15.10;99.90;;;;;;8258902;28;20501;-73
2021/09/04 06:00:55;;;;;;;22.00;10.35;;;15.00;99.90;;;;;;8250778;28;20061;-73
2021/09/04 06:04:57;;;;;;;21.30;10.80;;;15.00;99.90;;;;;;8251714;28;20054;-73
2021/09/04 06:09:02;;;;;;;22.38;10.25;;;15.00;99.90;;;;;;8253933;28;20065;-73
2021/09/04 06:13:04;;;;;;;18.08;9.63;;;15.00;99.90;;;;;;8253953;28;20050;-73
2021/09/04 06:17:05;;;;;;;20.80;10.02;;;15.00;99.90;;;;;;8261713;28;20045;-73
2021/09/04 06:21:07;;;;;;;20.58;10.38;;;15.00;99.90;;;;;;8252999;28;20517;-73
2021/09/04 06:25:10;;;;;;;23.00;11.02;;;15.00;99.90;;;;;;8243109;28;20441;-73
2021/09/04 06:29:11;;;;;;;19.17;10.35;;;15.00;99.90;;;;;;8252594;28;20050;-73
2021/09/04 06:33:13;;;;;;;20.58;10.38;;;15.00;99.90;;;;;;8251391;28;20085;-73
2021/09/04 06:37:15;;;;;;;22.63;10.55;;;15.00;99.90;;;;;;8249236;28;20042;-73
2021/09/04 06:41:16;;;;;;;18.42;10.30;;;15.00;99.90;;;;;;8255630;28;20390;-73
2021/09/04 06:45:18;;;;;;;14.65;7.68;;;15.00;99.90;;;;;;8249458;28;20042;-73
2021/09/04 06:49:20;;;;;;;20.38;9.52;;;15.00;99.90;;;;;;8250260;28;24602;-73
2021/09/04 06:53:21;;;;;;;17.30;9.05;;;15.00;99.90;;;;;;8250690;28;20077;-73
2021/09/04 06:57:23;;;;;;;16.25;7.57;;;15.00;99.90;;;;;;8248972;28;20050;-73
2021/09/04 07:01:25;;;;;;;18.48;8.75;;;15.10;99.90;;;;;;8263762;28;20057;-73
2021/09/04 07:05:27;;;;;;;16.25;9.15;;;15.10;99.90;;;;;;8249383;28;20050;-74
2021/09/04 07:09:29;;;;;;;21.33;10.38;;;15.10;99.90;;;;;;8248624;28;20061;-73
2021/09/04 07:13:31;;;;;;;20.35;9.82;;;15.10;99.90;;;;;;8246935;28;20050;-73
2021/09/04 07:17:33;;;;;;;21.98;10.70;;;15.10;99.90;;;;;;8236963;28;20046;-73
2021/09/04 07:21:35;;;;;;;19.70;9.10;;;15.10;99.90;;;;;;8246410;28;20555;-73
2021/09/04 07:25:36;;;;;;;20.33;10.23;;;15.20;99.90;;;;;;8248331;28;20058;-73
2021/09/04 07:29:38;;;;;;;17.27;9.32;;;15.20;99.90;;;;;;8247175;28;20387;-73
2021/09/04 07:33:40;;;;;;;21.50;9.32;;;15.20;99.90;;;;;;8247977;28;20536;-73
2021/09/04 07:37:41;;;;;;;17.88;9.32;;;15.20;99.90;;;;;;8236128;28;20069;-74
2021/09/04 07:41:43;;;;;;;14.65;8.30;;;15.30;99.90;;;;;;8249267;28;20108;-73
2021/09/04 07:45:45;;;;;;;16.02;8.57;;;15.30;99.90;;;;;;8249902;28;20502;-73
2021/09/04 07:49:47;;;;;;;20.60;8.88;;;15.30;99.90;;;;;;8268090;28;20144;-73
2021/09/04 07:53:48;;;;;;;16.38;7.85;;;15.30;99.90;;;;;;8267002;28;20745;-73
2021/09/04 07:57:50;;;;;;;19.55;8.90;;;15.30;99.90;;;;;;8250211;28;20047;-73
2021/09/04 08:01:52;;;;;;;19.40;8.60;;;15.40;99.90;;;;;;8257656;28;20081;-73
2021/09/04 08:05:54;;;;;;;17.23;8.65;;;15.40;99.90;;;;;;8254288;28;20383;-73
2021/09/04 08:09:56;;;;;;;17.73;8.48;;;15.40;99.90;;;;;;8255719;28;20054;-73
2021/09/04 08:13:58;;;;;;;15.98;9.00;;;15.40;99.90;;;;;;8256095;28;20143;-73
2021/09/04 08:17:59;;;;;;;18.17;8.68;;;15.50;99.90;;;;;;8254538;28;20070;-73
2021/09/04 08:22:02;;;;;;;15.05;8.27;;;15.50;99.90;;;;;;8254420;28;20070;-73
2021/09/04 08:26:04;;;;;;;15.77;8.98;;;15.50;99.90;;;;;;8254345;28;20061;-73
2021/09/04 08:30:06;;;;;;;16.13;8.48;;;15.50;99.90;;;;;;8254024;28;20058;-73
2021/09/04 08:34:09;;;;;;;135.70;20.52;;;15.50;99.90;;;;;;8250152;28;20050;-73
2021/09/04 08:38:11;;;;;;;13.52;6.55;;;15.60;99.90;;;;;;8252880;28;20485;-73
2021/09/04 08:42:13;;;;;;;13.13;5.93;;;15.60;99.90;;;;;;8258255;28;20146;-73
2021/09/04 08:46:15;;;;;;;12.13;5.80;;;15.70;99.90;;;;;;8254144;28;20042;-73
2021/09/04 08:50:18;;;;;;;24.98;7.07;;;15.70;99.90;;;;;;8254885;28;20506;-73
2021/09/04 08:54:19;;;;;;;13.02;6.55;;;15.80;99.90;;;;;;8253680;28;20401;-74
2021/09/04 08:58:21;;;;;;;14.00;6.50;;;15.90;99.90;;;;;;8253804;28;20046;-73
2021/09/04 09:02:27;;;;;;;11.13;6.28;;;15.90;99.90;;;;;;8238196;28;20418;-73
2021/09/04 09:06:35;;;;;;;21.58;7.97;;;16.00;99.90;;;;;;8254062;28;20065;-73
2021/09/04 09:10:40;;;;;;;12.70;7.40;;;16.00;99.90;;;;;;8256064;28;20046;-73
2021/09/04 09:14:56;;;;;;;13.20;6.35;;;16.10;99.90;;;;;;8252418;28;20422;-73
2021/09/04 09:19:01;;;;;;;15.53;6.50;;;16.20;99.90;;;;;;8242006;28;20043;-73
2021/09/04 09:23:19;;;;;;;14.63;7.72;;;16.30;99.90;;;;;;8252654;28;20317;-73
2021/09/04 09:27:21;;;;;;;12.98;6.55;;;16.30;99.90;;;;;;8254519;28;20058;-73
2021/09/04 09:31:32;;;;;;;13.75;7.03;;;16.30;99.90;;;;;;8252239;28;20152;-73
2021/09/04 09:35:38;;;;;;;16.40;7.82;;;16.50;99.90;;;;;;8250945;28;20425;-73
2021/09/04 09:39:42;;;;;;;12.75;7.28;;;16.60;99.90;;;;;;8252026;28;20070;-74
2021/09/04 09:43:44;;;;;;;14.82;7.68;;;16.70;99.90;;;;;;8267691;28;20121;-73
2021/09/04 09:47:58;;;;;;;15.23;7.75;;;16.70;99.90;;;;;;8249207;28;20104;-73
2021/09/04 09:52:02;;;;;;;13.45;7.15;;;16.80;99.90;;;;;;8249943;28;20077;-73
2021/09/04 09:56:06;;;;;;;16.40;8.10;;;17.00;99.90;;;;;;8249268;28;20050;-73
2021/09/04 10:00:08;;;;;;;14.00;7.50;;;17.10;99.90;;;;;;8251823;28;20541;-73
2021/09/04 10:04:11;;;;;;;12.02;6.65;;;17.10;99.90;;;;;;8251784;28;20370;-73
2021/09/04 10:08:19;;;;;;;11.82;6.80;;;17.10;99.90;;;;;;8252463;28;20482;-73
2021/09/04 10:12:21;;;;;;;14.35;7.57;;;17.20;99.90;;;;;;8240105;28;20092;-73
2021/09/04 10:16:46;;;;;;;14.63;7.65;;;17.30;99.90;;;;;;8250435;28;20149;-73
2021/09/04 10:21:08;;;;;;;11.10;6.05;;;17.50;99.90;;;;;;8250374;28;20057;-73
2021/09/04 10:25:16;;;;;;;11.30;6.50;;;17.70;99.90;;;;;;8250071;28;20050;-73
2021/09/04 10:29:18;;;;;;;;;;;17.90;99.90;;;;;;8251340;28;20432;-72
2021/09/04 10:33:25;;;;;;;12.40;5.97;;;18.00;99.90;;;;;;8249739;28;19991;-73
2021/09/04 10:37:27;;;;;;;;;;;18.00;99.90;;;;;;8249091;28;20091;-73
2021/09/04 10:41:33;;;;;;;;;;;18.10;99.90;;;;;;8251908;28;20277;-73
2021/09/04 10:51:01;;;;;;;11.57;6.32;;;18.30;99.90;;;;;;8251825;28;20163;-73
2021/09/04 10:55:04;;;;;;;12.02;6.40;;;18.50;99.90;;;;;;8248644;28;20054;-73
2021/09/04 10:59:05;;;;;;;11.45;6.43;;;18.60;99.90;;;;;;8251127;28;20057;-73
2021/09/04 11:03:12;;;;;;;12.27;6.72;;;18.70;99.90;;;;;;8253043;28;20081;-73
2021/09/04 11:07:14;;;;;;;12.00;6.65;;;18.80;99.90;;;;;;8249517;28;20477;-73
2021/09/04 11:11:17;;;;;;;;;;;18.90;99.90;;;;;;8252979;28;20046;-73
2021/09/04 11:15:24;;;;;;;;;;;19.00;99.90;;;;;;8250736;28;19930;-73
2021/09/04 11:19:33;;;;;;;;;;;19.10;99.90;;;;;;8250881;28;19922;-73
2021/09/04 11:23:35;;;;;;;;;;;19.10;99.90;;;;;;8250775;28;19925;-73
2021/09/04 11:27:43;;;;;;;13.13;6.88;;;19.20;99.90;;;;;;8248811;28;19929;-73
2021/09/04 11:31:57;;;;;;;11.70;6.85;;;19.30;99.90;;;;;;8249531;28;20466;-73
2021/09/04 11:35:58;;;;;;;11.48;6.93;;;19.30;99.90;;;;;;8249509;28;20108;-73
2021/09/04 11:40:07;;;;;;;10.95;7.15;;;19.40;99.90;;;;;;8254833;28;20100;-73
2021/09/04 11:44:10;;;;;;;11.52;6.60;;;19.40;99.90;;;;;;8250953;28;20038;-73
2021/09/04 11:48:13;;;;;;;12.82;7.65;;;19.50;99.90;;;;;;8248477;28;20114;-72
2021/09/04 11:52:20;;;;;;;11.40;7.32;;;19.50;99.90;;;;;;8250400;28;20416;-73
2021/09/04 11:56:22;;;;;;;12.98;6.40;;;19.60;99.90;;;;;;8248939;28;20439;-73
2021/09/04 12:00:33;;;;;;;10.85;6.70;;;19.60;99.90;;;;;;8250206;28;20060;-73
2021/09/04 12:04:36;;;;;;;11.07;6.60;;;19.70;99.90;;;;;;8248575;28;20488;-73
2021/09/04 12:08:38;;;;;;;12.63;6.47;;;19.70;99.90;;;;;;8248239;28;20447;-73
2021/09/04 12:12:41;;;;;;;12.10;6.83;;;19.70;99.90;;;;;;8247592;28;20247;-73
2021/09/04 12:16:42;;;;;;;;;;;19.80;99.90;;;;;;8263661;28;20061;-73
2021/09/04 12:20:45;;;;;;;10.70;6.50;;;19.80;99.90;;;;;;8248852;28;19926;-73
2021/09/04 12:24:46;;;;;;;8.47;5.17;;;19.80;99.90;;;;;;8250712;28;20275;-73
2021/09/04 12:28:48;;;;;;;13.40;7.65;;;19.90;99.90;;;;;;8249200;28;20284;-73
2021/09/04 12:33:00;;;;;;;;;;;19.90;99.90;;;;;;8248867;28;20227;-73
2021/09/04 12:37:02;;;;;;;;;;;20.00;99.90;;;;;;8254657;28;19977;-73
2021/09/04 12:41:05;;;;;;;;;;;20.10;99.90;;;;;;8255833;28;19922;-73
2021/09/04 12:45:07;;;;;;;;;;;20.20;99.90;;;;;;8255253;28;19985;-73
2021/09/04 12:49:22;;;;;;;;;;;20.20;99.90;;;;;;8254827;28;20262;-73
2021/09/04 12:53:27;;;;;;;;;;;20.30;99.90;;;;;;8256080;28;20271;-73
2021/09/04 12:57:34;;;;;;;;;;;20.30;99.90;;;;;;8254442;28;19928;-73
2021/09/04 13:01:36;;;;;;;;;;;20.30;99.90;;;;;;8255508;28;19922;-73
2021/09/04 13:05:38;;;;;;;;;;;20.40;99.90;;;;;;8250893;28;20339;-73
2021/09/04 13:09:40;;;;;;;;;;;20.40;99.90;;;;;;8255040;28;19948;-73
2021/09/04 13:13:41;;;;;;;;;;;20.50;99.90;;;;;;8255515;28;19926;-73
2021/09/04 13:17:48;;;;;;;;;;;20.50;99.90;;;;;;8252939;28;19930;-73
2021/09/04 13:21:49;;;;;;;;;;;20.60;99.90;;;;;;8254735;28;19922;-73
2021/09/04 13:25:51;;;;;;;;;;;20.60;99.90;;;;;;8253103;28;20326;-73
2021/09/04 13:29:53;;;;;;;;;;;20.60;99.90;;;;;;8254532;28;19928;-73
2021/09/04 13:33:54;;;;;;;;;;;20.70;99.90;;;;;;8254098;28;19929;-73
2021/09/04 13:37:56;;;;;;;;;;;20.70;99.90;;;;;;8252990;28;19922;-73
2021/09/04 13:41:58;;;;;;;;;;;20.80;99.90;;;;;;8254898;28;19921;-74
2021/09/04 13:45:59;;;;;;;;;;;20.80;99.90;;;;;;8252167;28;20377;-73
2021/09/04 13:50:01;;;;;;;;;;;20.90;99.90;;;;;;8251978;28;19937;-73
2021/09/04 13:54:03;;;;;;;;;;;20.90;99.90;;;;;;8253293;28;19925;-73
2021/09/04 13:58:04;;;;;;;;;;;20.90;99.90;;;;;;8251088;28;20047;-73
2021/09/04 14:02:06;;;;;;;;;;;21.00;99.90;;;;;;8252779;28;19921;-74
2021/09/04 14:06:08;;;;;;;;;;;21.00;99.90;;;;;;8253175;28;21909;-73
2021/09/04 14:10:10;;;;;;;;;;;21.10;99.90;;;;;;8252257;28;20363;-73
2021/09/04 14:14:12;;;;;;;;;;;21.10;99.90;;;;;;8252965;28;19926;-73
2021/09/04 14:18:13;;;;;;;;;;;21.20;99.90;;;;;;8252033;28;20004;-74
2021/09/04 14:22:15;;;;;;;;;;;21.20;99.90;;;;;;8253332;28;19926;-73
2021/09/04 14:26:16;;;;;;;;;;;21.20;99.90;;;;;;8252363;28;19963;-73
2021/09/04 14:30:18;;;;;;;;;;;21.10;99.90;;;;;;8251074;28;20203;-73
2021/09/04 14:34:20;;;;;;;;;;;21.10;99.90;;;;;;8249787;28;19945;-73
2021/09/04 14:38:21;;;;;;;;;;;21.20;99.90;;;;;;8250971;28;20338;-73
2021/09/04 14:42:23;;;;;;;;;;;21.20;99.90;;;;;;8249212;28;22070;-73
2021/09/04 14:46:25;;;;;;;;;;;21.20;99.90;;;;;;8230713;28;20301;-73
2021/09/04 14:50:26;;;;;;;;;;;21.20;99.90;;;;;;8246611;28;19962;-73
2021/09/04 14:54:28;;;;;;;;;;;21.20;99.90;;;;;;8250259;28;19992;-73
2021/09/04 14:58:30;;;;;;;;;;;21.30;99.90;;;;;;8251280;28;20285;-74
2021/09/04 15:02:32;;;;;;;;;;;21.30;99.90;;;;;;8254040;28;20385;-73
2021/09/04 15:06:34;;;;;;;;;;;21.40;99.90;;;;;;8251339;28;19952;-73
2021/09/04 15:10:35;;;;;;;;;;;21.40;99.90;;;;;;8251357;28;20285;-73
2021/09/04 15:14:37;;;;;;;;;;;21.40;99.90;;;;;;8248936;28;19926;-73
2021/09/04 15:18:39;;;;;;;;;;;21.50;99.90;;;;;;8250907;28;19929;-73
2021/09/04 15:22:40;;;;;;;;;;;21.50;99.90;;;;;;8250393;28;19922;-73
2021/09/04 15:26:44;;;;;;;;;;;21.50;99.90;;;;;;8249919;28;19926;-73
2021/09/04 15:30:46;;;;;;;;;;;21.50;99.90;;;;;;8249906;28;20286;-73
2021/09/04 15:34:49;;;;;;;;;;;21.50;99.90;;;;;;8248507;28;19987;-73
2021/09/04 15:38:58;;;;;;;;;;;21.60;99.90;;;;;;8250263;28;19921;-73
2021/09/04 15:43:00;;;;;;;;;;;21.60;99.90;;;;;;8249914;28;19934;-73
2021/09/04 15:47:03;;;;;;;;;;;21.70;99.90;;;;;;8249418;28;19925;-73
2021/09/04 15:51:04;;;;;;;;;;;21.80;99.90;;;;;;8248146;28;19921;-73
2021/09/04 15:55:06;;;;;;;;;;;21.80;99.90;;;;;;8236812;28;19922;-73
2021/09/04 15:59:08;;;;;;;;;;;21.90;99.90;;;;;;8252695;28;19925;-73
2021/09/04 16:03:10;;;;;;;;;;;21.90;99.90;;;;;;8248482;28;20309;-73
2021/09/04 16:07:11;;;;;;;;;;;22.10;99.90;;;;;;8268343;28;20301;-73
2021/09/04 16:11:13;;;;;;;;;;;22.20;99.90;;;;;;8255091;28;20336;-73
2021/09/04 16:15:15;;;;;;;;;;;22.20;99.90;;;;;;8255123;28;20044;-73
2021/09/04 16:19:17;;;;;;;;;;;22.30;99.90;;;;;;8254598;28;20309;-73
2021/09/04 16:23:18;;;;;;;;;;;22.30;99.90;;;;;;8256658;28;19921;-73
2021/09/04 16:27:25;;;;;;;;;;;22.30;99.90;;;;;;8240146;28;20341;-73
2021/09/04 16:31:27;;;;;;;;;;;22.20;99.90;;;;;;8240872;28;19926;-73
2021/09/04 16:35:30;;;;;;;;;;;22.20;99.90;;;;;;8254365;28;20385;-73
2021/09/04 16:39:31;;;;;;;;;;;22.30;99.90;;;;;;8254021;28;19929;-73
2021/09/04 16:43:34;;;;;;;;;;;22.50;99.90;;;;;;8253408;28;19921;-73
2021/09/04 16:47:36;;;;;;;;;;;22.70;99.90;;;;;;8250688;28;19976;-73
2021/09/04 16:51:38;;;;;;;;;;;23.10;99.90;;;;;;8253120;28;19925;-73
2021/09/04 16:55:40;;;;;;;;;;;23.50;99.90;;;;;;8254027;28;19970;-73
2021/09/04 16:59:41;;;;;;;;;;;23.80;99.90;;;;;;8253203;28;20000;-73
2021/09/04 17:03:43;;;;;;;;;;;24.20;99.90;;;;;;8251384;28;19926;-73
2021/09/04 17:07:45;;;;;;;;;;;24.50;99.90;;;;;;8252944;28;19921;-73
2021/09/04 17:11:47;;;;;;;8.77;5.63;;;24.60;99.90;;;;;;8252750;28;19925;-73
2021/09/04 17:15:49;;;;;;;9.85;5.85;;;24.80;99.90;;;;;;8252440;28;20046;-74
2021/09/04 17:19:50;;;;;;;9.07;5.80;;;24.90;99.90;;;;;;8252396;28;20148;-73
2021/09/04 17:23:52;;;;;;;10.00;6.00;;;24.90;99.90;;;;;;8252505;28;20046;-73
2021/09/04 17:27:54;;;;;;;9.90;6.00;;;24.80;99.90;;;;;;8251031;28;20051;-73
2021/09/04 17:31:55;;;;;;;10.73;5.83;;;24.60;99.90;;;;;;8253766;28;20050;-73
2021/09/04 17:35:58;;;;;;;10.40;5.97;;;24.30;99.90;;;;;;8253236;28;20053;-73
2021/09/04 17:40:00;;;;;;;9.75;5.95;;;23.90;99.90;;;;;;8253874;28;20042;-73
2021/09/04 17:44:03;;;;;;;10.00;5.60;;;23.50;99.90;;;;;;8252303;28;20070;-73
2021/09/04 17:48:04;;;;;;;;;;;23.20;99.90;;;;;;8252781;28;19922;-73
2021/09/04 17:52:06;;;;;;;;;;;22.90;99.90;;;;;;8253582;28;19925;-73
2021/09/04 17:56:08;;;;;;;;;;;22.60;99.90;;;;;;8265086;28;19921;-73
2021/09/04 18:00:10;;;;;;;;;;;22.30;99.90;;;;;;8254383;28;19925;-73
2021/09/04 18:04:11;;;;;;;;;;;22.00;99.90;;;;;;8250676;28;19921;-73
2021/09/04 18:08:13;;;;;;;;;;;21.80;99.90;;;;;;8253167;28;19928;-73
2021/09/04 18:12:15;;;;;;;;;;;21.60;99.90;;;;;;8253030;28;19921;-73
2021/09/04 18:16:16;;;;;;;;;;;21.40;99.90;;;;;;8252464;28;19925;-73
2021/09/04 18:20:19;;;;;;;;;;;21.20;99.90;;;;;;8252679;28;19922;-73
2021/09/04 18:24:21;;;;;;;;;;;21.10;99.90;;;;;;8256298;28;19976;-73
2021/09/04 18:28:23;;;;;;;;;;;20.90;99.90;;;;;;8252365;28;19976;-73
2021/09/04 18:32:24;;;;;;;;;;;20.80;99.90;;;;;;8251617;28;19925;-73
2021/09/04 18:36:26;;;;;;;;;;;20.60;99.90;;;;;;8250029;28;19929;-73
2021/09/04 18:40:28;;;;;;;11.40;6.40;;;20.50;99.90;;;;;;8254657;28;19921;-73
2021/09/04 18:44:31;;;;;;;9.90;6.10;;;20.40;99.90;;;;;;8249790;28;20043;-73
2021/09/04 18:48:33;;;;;;;15.85;6.80;;;20.30;99.90;;;;;;8246013;28;20193;-73
2021/09/04 18:52:34;;;;;;;10.50;6.90;;;20.20;99.90;;;;;;8247225;28;20057;-73
2021/09/04 18:56:36;;;;;;;11.32;6.70;;;20.00;99.90;;;;;;8244027;28;20054;-73
2021/09/04 19:00:38;;;;;;;11.45;6.95;;;19.90;99.90;;;;;;8246392;28;20054;-74
2021/09/04 19:04:39;;;;;;;12.50;7.18;;;19.80;99.90;;;;;;8241992;28;20101;-73
2021/09/04 19:08:44;;;;;;;11.27;6.65;;;19.70;99.90;;;;;;8246423;28;20054;-73
2021/09/04 19:12:45;;;;;;;12.68;6.63;;;19.60;99.90;;;;;;8245599;28;20046;-73
2021/09/04 19:16:47;;;;;;;9.82;6.05;;;19.50;99.90;;;;;;8244801;28;20054;-73
2021/09/04 19:20:49;;;;;;;14.07;6.55;;;19.40;99.90;;;;;;8244142;28;20552;-73
2021/09/04 19:24:51;;;;;;;12.05;7.95;;;19.20;99.90;;;;;;8244520;28;20435;-73
2021/09/04 19:28:52;;;;;;;13.57;9.15;;;19.10;99.90;;;;;;8243523;28;20112;-73
2021/09/04 19:32:54;;;;;;;15.02;8.48;;;19.10;99.90;;;;;;8248258;28;20058;-73
2021/09/04 19:36:56;;;;;;;9.00;6.05;;;19.00;99.90;;;;;;8248133;28;20050;-73
2021/09/04 19:40:58;;;;;;;14.75;7.28;;;19.00;99.90;;;;;;8252628;28;20054;-73
2021/09/04 19:45:00;;;;;;;10.20;6.45;;;18.90;99.90;;;;;;8249885;28;20051;-73
2021/09/04 19:49:02;;;;;;;12.52;7.78;;;18.90;99.90;;;;;;8253759;28;20156;-73
2021/09/04 19:53:04;;;;;;;15.48;10.02;;;18.90;99.90;;;;;;8250401;28;20501;-73
2021/09/04 19:57:05;;;;;;;18.33;10.43;;;18.80;99.90;;;;;;8255630;28;20362;-73
2021/09/04 20:01:07;;;;;;;15.48;10.35;;;18.70;99.90;;;;;;8260551;28;20053;-73
2021/09/04 20:05:09;;;;;;;15.85;9.23;;;18.70;99.90;;;;;;8260151;28;20446;-73
2021/09/04 20:09:11;;;;;;;14.40;10.10;;;18.60;99.90;;;;;;8255331;28;20108;-73
2021/09/04 20:13:13;;;;;;;;;;;18.50;99.90;;;;;;8253176;28;19937;-73
2021/09/04 20:17:19;;;;;;;;;;;18.50;99.90;;;;;;8254582;28;19922;-73
2021/09/04 20:21:20;;;;;;;;;;;18.50;99.90;;;;;;8254262;28;19930;-73
2021/09/04 20:25:22;;;;;;;;;;;18.40;99.90;;;;;;8253126;28;20409;-73
2021/09/04 20:29:24;;;;;;;;;;;18.40;99.90;;;;;;8239765;28;19925;-73
2021/09/04 20:33:26;;;;;;;15.50;9.60;;;18.40;99.90;;;;;;8238910;28;19929;-73
2021/09/04 20:37:46;;;;;;;14.03;8.20;;;18.40;99.90;;;;;;8253217;28;20080;-73
2021/09/04 20:41:51;;;;;;;12.88;8.07;;;18.30;99.90;;;;;;8269547;28;20160;-73
2021/09/04 20:45:53;;;;;;;15.75;8.48;;;18.30;99.90;;;;;;8253490;28;20057;-73
2021/09/04 20:49:55;;;;;;;12.02;7.50;;;18.30;99.90;;;;;;8253453;28;20132;-73
2021/09/04 20:53:56;;;;;;;14.40;6.88;;;18.30;99.90;;;;;;8252382;28;20053;-73
2021/09/04 20:57:58;;;;;;;9.57;5.85;;;18.30;99.90;;;;;;8268903;28;20058;-73
2021/09/04 21:02:00;;;;;;;13.50;7.22;;;18.30;99.90;;;;;;8256968;28;20053;-73
2021/09/04 21:06:03;;;;;;;13.48;7.43;;;18.30;99.90;;;;;;8262154;28;20121;-73
2021/09/04 21:10:06;;;;;;;13.05;6.95;;;18.30;99.90;;;;;;8262330;28;20120;-73
2021/09/04 21:14:08;;;;;;;17.05;8.73;;;18.30;99.90;;;;;;8261925;28;20133;-73
2021/09/04 21:18:10;;;;;;;11.77;6.82;;;18.20;99.90;;;;;;8276431;28;20406;-73
2021/09/04 21:22:12;;;;;;;14.70;7.67;;;18.20;99.90;;;;;;8262301;28;20053;-73
2021/09/04 21:26:13;;;;;;;19.23;8.35;;;18.20;99.90;;;;;;8261804;28;20042;-73
2021/09/04 21:30:15;;;;;;;14.50;7.95;;;18.20;99.90;;;;;;8263168;28;20050;-73
2021/09/04 21:34:17;;;;;;;14.05;7.38;;;18.10;99.90;;;;;;8260234;28;20054;-73